Time;durP1;ratioP1;P1;durP2;ratioP2;P2;SDS_P1;SDS_P2;PMS_P1;PMS_P2;Temp;Humidity;BMP_temperature;BMP_pressure;BME280_temperature;BME280_humidity;BME280_pressure;Samples;Min_cycle;Max_cycle;Signal;HPM_P1;HPM_P2
2022/04/18 00:02:03;;;;;;;;;;;;;;;;;;5064007;28;19935;-62
2022/04/18 00:04:29;;;;;;;;;;;;;;;;;;5064427;28;19929;-63
2022/04/18 00:06:55;;;;;;;;;;;;;;;;;;5063845;28;19943;-62
2022/04/18 00:09:21;;;;;;;;;;;;;;;;;;5064997;28;19936;-62
2022/04/18 00:11:47;;;;;;;;;;;;;;;;;;5066108;28;19936;-60
2022/04/18 00:14:13;;;;;;;;;;;;;;;;;;4716369;28;9999764;-64
2022/04/18 00:16:39;;;;;;;;;;;;;;;;;;5062039;28;19947;-62
2022/04/18 00:19:06;;;;;;;;;;;;;;;;;;5065003;28;19934;-62
2022/04/18 00:21:32;;;;;;;;;;;;;;;;;;5062934;28;19932;-63
2022/04/18 00:23:58;;;;;;;;;;;;;;;;;;5063608;28;19982;-67
2022/04/18 00:26:24;;;;;;;;;;;;;;;;;;5067261;28;20377;-67
2022/04/18 00:28:50;;;;;;;;;;;;;;;;;;5067113;28;20392;-68
2022/04/18 00:31:16;;;;;;;;;;;;;;;;;;5067923;28;20368;-68
2022/04/18 00:33:42;;;;;;;;;;;;;;;;;;5064116;28;20492;-67
2022/04/18 00:36:09;;;;;;;;;;;;;;;;;;5061681;28;19956;-66
2022/04/18 00:38:35;;;;;;;;;;;;;;;;;;5062377;28;20011;-66
2022/04/18 00:41:01;;;;;;;;;;;;;;;;;;5061919;28;19939;-65
2022/04/18 00:43:27;;;;;;;;;;;;;;;;;;5068808;28;19932;-65
2022/04/18 00:45:53;;;;;;;;;;;;;;;;;;5067102;28;19924;-68
2022/04/18 00:48:19;;;;;;;;;;;;;;;;;;5063548;28;20369;-67
2022/04/18 00:50:46;;;;;;;;;;;;;;;;;;5069276;28;19929;-66
2022/04/18 00:53:12;;;;;;;;;;;;;;;;;;5067276;28;19932;-68
2022/04/18 00:55:38;;;;;;;;;;;;;;;;;;5064065;28;20014;-67
2022/04/18 00:58:04;;;;;;;;;;;;;;;;;;5070271;28;19924;-67
2022/04/18 01:00:30;;;;;;;;;;;;;;;;;;5069922;28;20374;-67
2022/04/18 01:02:58;;;;;;;;;;;;;;;;;;5066864;28;20381;-68
2022/04/18 01:05:24;;;;;;;;;;;;;;;;;;5070848;28;20007;-68
2022/04/18 01:07:50;;;;;;;;;;;;;;;;;;5060244;28;20108;-62
2022/04/18 01:10:19;;;;;;;;;;;;;;;;;;5068548;28;19936;-64
2022/04/18 01:12:45;;;;;;;;;;;;;;;;;;5068260;28;20400;-65
2022/04/18 01:15:11;;;;;;;;;;;;;;;;;;5072096;28;19947;-63
2022/04/18 01:17:37;;;;;;;;;;;;;;;;;;5070615;28;20442;-64
2022/04/18 01:20:03;;;;;;;;;;;;;;;;;;5071797;28;20293;-63
2022/04/18 01:22:30;;;;;;;;;;;;;;;;;;5067364;28;20304;-62
2022/04/18 01:30:24;;;;;;;;;;;;;;;;;;5069993;28;19920;-70
2022/04/18 01:32:50;;;;;;;;;;;;;;;;;;5066166;28;19928;-71
2022/04/18 01:35:16;;;;;;;;;;;;;;;;;;5064511;28;19928;-71
2022/04/18 01:37:42;;;;;;;;;;;;;;;;;;5072140;28;20373;-70
2022/04/18 01:40:08;;;;;;;;;;;;;;;;;;5071406;28;20297;-64
2022/04/18 01:42:34;;;;;;;;;;;;;;;;;;5063090;28;20019;-70
2022/04/18 01:45:01;;;;;;;;;;;;;;;;;;5071628;28;19924;-70
2022/04/18 01:47:27;;;;;;;;;;;;;;;;;;5071605;28;19963;-70
2022/04/18 01:49:53;;;;;;;;;;;;;;;;;;5070943;28;19931;-63
2022/04/18 01:52:19;;;;;;;;;;;;;;;;;;5069094;28;19947;-63
2022/04/18 01:54:45;;;;;;;;;;;;;;;;;;5070395;28;19928;-68
2022/04/18 01:57:11;;;;;;;;;;;;;;;;;;5068523;28;19925;-68
2022/04/18 01:59:39;;;;;;;;;;;;;;;;;;5066637;28;19959;-61
2022/04/18 02:02:05;;;;;;;;;;;;;;;;;;5068288;28;19978;-60
2022/04/18 02:04:31;;;;;;;;;;;;;;;;;;5069965;28;20042;-62
2022/04/18 02:06:57;;;;;;;;;;;;;;;;;;5070433;28;19924;-63
2022/04/18 02:09:23;;;;;;;;;;;;;;;;;;5071451;28;19936;-62
2022/04/18 02:11:49;;;;;;;;;;;;;;;;;;5071526;28;19924;-63
2022/04/18 02:14:15;;;;;;;;;;;;;;;;;;5069891;28;19935;-57
2022/04/18 02:16:41;;;;;;;;;;;;;;;;;;5070001;28;19924;-56
2022/04/18 02:19:08;;;;;;;;;;;;;;;;;;5071133;28;19924;-58
2022/04/18 02:21:34;;;;;;;;;;;;;;;;;;5071142;28;19933;-57
2022/04/18 02:24:00;;;;;;;;;;;;;;;;;;5070991;28;19925;-58
2022/04/18 02:26:26;;;;;;;;;;;;;;;;;;5060454;28;19936;-59
2022/04/18 02:28:52;;;;;;;;;;;;;;;;;;5069883;28;19931;-60
2022/04/18 02:31:18;;;;;;;;;;;;;;;;;;5064346;28;19928;-62
2022/04/18 02:33:44;;;;;;;;;;;;;;;;;;5071099;28;19932;-60
2022/04/18 02:36:11;;;;;;;;;;;;;;;;;;5067837;28;19924;-60
2022/04/18 02:38:37;;;;;;;;;;;;;;;;;;5074661;22;19925;-60
2022/04/18 02:41:03;;;;;;;;;;;;;;;;;;5069736;28;19924;-59
2022/04/18 02:43:29;;;;;;;;;;;;;;;;;;5060844;28;19924;-58
2022/04/18 02:45:55;;;;;;;;;;;;;;;;;;5056759;28;19935;-58
2022/04/18 02:48:21;;;;;;;;;;;;;;;;;;5063871;28;19936;-58
2022/04/18 02:50:47;;;;;;;;;;;;;;;;;;5061253;28;20017;-58
2022/04/18 02:53:13;;;;;;;;;;;;;;;;;;5061932;28;19939;-58
2022/04/18 02:55:40;;;;;;;;;;;;;;;;;;5055442;28;19925;-58
2022/04/18 02:58:06;;;;;;;;;;;;;;;;;;5052276;28;19929;-58
2022/04/18 03:00:32;;;;;;;;;;;;;;;;;;5061425;28;19928;-60
2022/04/18 03:02:58;;;;;;;;;;;;;;;;;;5063575;28;19940;-60
2022/04/18 03:05:24;;;;;;;;;;;;;;;;;;5056119;28;20216;-59
2022/04/18 03:07:50;;;;;;;;;;;;;;;;;;5057207;28;19982;-61
2022/04/18 03:11:02;;;;;;;;;;;;;;;;;;5058503;28;19928;-61
2022/04/18 03:13:03;;;;;;;;;;;;;;;;;;5059649;28;19940;-62
2022/04/18 03:15:29;;;;;;;;;;;;;;;;;;5059128;28;19924;-61
2022/04/18 03:17:55;;;;;;;;;;;;;;;;;;5062499;28;19940;-61
2022/04/18 03:20:21;;;;;;;;;;;;;;;;;;5060024;28;20258;-63
2022/04/18 03:22:47;;;;;;;;;;;;;;;;;;5055788;28;19948;-63
2022/04/18 03:25:13;;;;;;;;;;;;;;;;;;5072363;28;19934;-62
2022/04/18 03:27:40;;;;;;;;;;;;;;;;;;5065945;28;20345;-63
2022/04/18 03:30:06;;;;;;;;;;;;;;;;;;5068082;28;20320;-62
2022/04/18 03:32:32;;;;;;;;;;;;;;;;;;5070968;28;20025;-61
2022/04/18 03:34:58;;;;;;;;;;;;;;;;;;5064831;28;20407;-63
2022/04/18 03:40:08;;;;;;;;;;;;;;;;;;5067141;28;19924;-68
2022/04/18 03:42:35;;;;;;;;;;;;;;;;;;5072966;28;20034;-65
2022/04/18 03:45:01;;;;;;;;;;;;;;;;;;5073033;28;19932;-65
2022/04/18 03:47:27;;;;;;;;;;;;;;;;;;5072506;28;19924;-62
2022/04/18 03:49:53;;;;;;;;;;;;;;;;;;5074994;28;19924;-61
2022/04/18 03:52:19;;;;;;;;;;;;;;;;;;5058640;28;19993;-61
2022/04/18 03:54:46;;;;;;;;;;;;;;;;;;5059676;28;19936;-62
2022/04/18 03:57:12;;;;;;;;;;;;;;;;;;5061928;28;20256;-59
2022/04/18 03:59:38;;;;;;;;;;;;;;;;;;5057782;28;19931;-60
2022/04/18 04:02:05;;;;;;;;;;;;;;;;;;5062602;28;20098;-61
2022/04/18 04:04:31;;;;;;;;;;;;;;;;;;5062722;28;19932;-60
2022/04/18 04:06:57;;;;;;;;;;;;;;;;;;5059172;28;19931;-60
2022/04/18 04:09:23;;;;;;;;;;;;;;;;;;5056740;28;19950;-61
2022/04/18 04:11:51;;;;;;;;;;;;;;;;;;5059671;28;19924;-61
2022/04/18 04:14:17;;;;;;;;;;;;;;;;;;5059311;28;19940;-60
2022/04/18 04:16:44;;;;;;;;;;;;;;;;;;5059735;28;19932;-60
2022/04/18 04:19:10;;;;;;;;;;;;;;;;;;5060109;28;19929;-61
2022/04/18 04:21:36;;;;;;;;;;;;;;;;;;5052634;28;20008;-61
2022/04/18 04:24:02;;;;;;;;;;;;;;;;;;5063827;28;19925;-61
2022/04/18 04:26:28;;;;;;;;;;;;;;;;;;5063350;28;19936;-62
2022/04/18 04:28:54;;;;;;;;;;;;;;;;;;5058479;28;20821;-61
2022/04/18 04:31:20;;;;;;;;;;;;;;;;;;5060153;28;20474;-60
2022/04/18 04:33:47;;;;;;;;;;;;;;;;;;5062406;28;19935;-62
2022/04/18 04:36:13;;;;;;;;;;;;;;;;;;5066529;28;19924;-62
2022/04/18 04:38:39;;;;;;;;;;;;;;;;;;5060162;28;19929;-61
2022/04/18 04:41:06;;;;;;;;;;;;;;;;;;5063597;28;19932;-62
2022/04/18 04:43:32;;;;;;;;;;;;;;;;;;5063481;28;19924;-62
2022/04/18 04:46:00;;;;;;;;;;;;;;;;;;5061811;28;19951;-62
2022/04/18 04:48:26;;;;;;;;;;;;;;;;;;5057955;28;19959;-62
2022/04/18 04:50:52;;;;;;;;;;;;;;;;;;5061843;28;19925;-58
2022/04/18 04:53:18;;;;;;;;;;;;;;;;;;5065701;28;19925;-59
2022/04/18 04:55:44;;;;;;;;;;;;;;;;;;5061678;28;20068;-57
2022/04/18 04:58:10;;;;;;;;;;;;;;;;;;5061958;28;20123;-57
2022/04/18 05:00:37;;;;;;;;;;;;;;;;;;5062371;28;19929;-65
2022/04/18 05:03:03;;;;;;;;;;;;;;;;;;5066840;28;20007;-66
2022/04/18 05:05:29;;;;;;;;;;;;;;;;;;5051980;28;19924;-65
2022/04/18 05:07:55;;;;;;;;;;;;;;;;;;5060989;28;19939;-65
2022/04/18 05:10:21;;;;;;;;;;;;;;;;;;5058414;28;19940;-64
2022/04/18 05:12:47;;;;;;;;;;;;;;;;;;5059632;28;20358;-62
2022/04/18 05:15:13;;;;;;;;;;;;;;;;;;5058271;28;20027;-63
2022/04/18 05:17:40;;;;;;;;;;;;;;;;;;5055979;28;19925;-62
2022/04/18 05:20:06;;;;;;;;;;;;;;;;;;5060297;28;19940;-62
2022/04/18 05:22:32;;;;;;;;;;;;;;;;;;5057865;28;20298;-62
2022/04/18 05:24:58;;;;;;;;;;;;;;;;;;5064862;28;19932;-61
2022/04/18 05:27:24;;;;;;;;;;;;;;;;;;5058792;28;19925;-58
2022/04/18 05:29:50;;;;;;;;;;;;;;;;;;5062351;28;19924;-61
2022/04/18 05:32:16;;;;;;;;;;;;;;;;;;5059114;28;19924;-63
2022/04/18 05:34:43;;;;;;;;;;;;;;;;;;5061648;28;20408;-62
2022/04/18 05:37:09;;;;;;;;;;;;;;;;;;5061030;28;20001;-62
2022/04/18 05:39:35;;;;;;;;;;;;;;;;;;5054927;28;19929;-62
2022/04/18 05:42:01;;;;;;;;;;;;;;;;;;5066580;28;19931;-63
2022/04/18 05:44:27;;;;;;;;;;;;;;;;;;5056813;28;19936;-63
2022/04/18 05:46:53;;;;;;;;;;;;;;;;;;5056891;28;19925;-63
2022/04/18 05:49:19;;;;;;;;;;;;;;;;;;5057904;28;19925;-62
2022/04/18 05:51:46;;;;;;;;;;;;;;;;;;5060168;28;20149;-62
2022/04/18 05:54:12;;;;;;;;;;;;;;;;;;5060712;28;19931;-63
2022/04/18 05:56:38;;;;;;;;;;;;;;;;;;5059066;28;19931;-61
2022/04/18 05:59:05;;;;;;;;;;;;;;;;;;5052959;28;19993;-61
2022/04/18 06:01:31;;;;;;;;;;;;;;;;;;5057349;28;20007;-64
2022/04/18 06:03:57;;;;;;;;;;;;;;;;;;5063499;28;19925;-64
2022/04/18 06:06:23;;;;;;;;;;;;;;;;;;5059918;28;19924;-64
2022/04/18 06:08:49;;;;;;;;;;;;;;;;;;5054842;28;20170;-65
2022/04/18 06:11:16;;;;;;;;;;;;;;;;;;5053857;28;19951;-64
2022/04/18 06:13:42;;;;;;;;;;;;;;;;;;5055903;28;19936;-64
2022/04/18 06:16:09;;;;;;;;;;;;;;;;;;5059739;28;19939;-65
2022/04/18 06:18:35;;;;;;;;;;;;;;;;;;5052803;28;20016;-63
2022/04/18 06:21:03;;;;;;;;;;;;;;;;;;5061226;28;19936;-64
2022/04/18 06:23:29;;;;;;;;;;;;;;;;;;5061520;28;19932;-63
2022/04/18 06:25:56;;;;;;;;;;;;;;;;;;5061773;28;19925;-64
2022/04/18 06:28:22;;;;;;;;;;;;;;;;;;5058367;28;19925;-67
2022/04/18 06:30:48;;;;;;;;;;;;;;;;;;5061998;28;19928;-64
2022/04/18 06:33:14;;;;;;;;;;;;;;;;;;5060046;28;20019;-65
2022/04/18 06:35:42;;;;;;;;;;;;;;;;;;5057286;28;19932;-63
2022/04/18 06:38:08;;;;;;;;;;;;;;;;;;5059428;28;19924;-66
2022/04/18 06:40:34;;;;;;;;;;;;;;;;;;5055368;28;20031;-63
2022/04/18 06:43:00;;;;;;;;;;;;;;;;;;5063936;28;19925;-63
2022/04/18 06:45:28;;;;;;;;;;;;;;;;;;5060951;28;20400;-64
2022/04/18 06:47:54;;;;;;;;;;;;;;;;;;5058760;28;20399;-63
2022/04/18 06:50:20;;;;;;;;;;;;;;;;;;5065192;28;19935;-64
2022/04/18 06:52:46;;;;;;;;;;;;;;;;;;5066580;28;19924;-63
2022/04/18 06:55:12;;;;;;;;;;;;;;;;;;5062914;28;19974;-60
2022/04/18 06:57:38;;;;;;;;;;;;;;;;;;5058518;28;19925;-60
2022/04/18 07:00:04;;;;;;;;;;;;;;;;;;5063519;28;20407;-61
2022/04/18 07:02:30;;;;;;;;;;;;;;;;;;5060956;28;20479;-60
2022/04/18 07:04:56;;;;;;;;;;;;;;;;;;5057585;28;19963;-60
2022/04/18 07:07:23;;;;;;;;;;;;;;;;;;5059111;28;19932;-62
2022/04/18 07:09:49;;;;;;;;;;;;;;;;;;5053710;28;19925;-64
2022/04/18 07:12:15;;;;;;;;;;;;;;;;;;5051962;28;19924;-65
2022/04/18 07:14:42;;;;;;;;;;;;;;;;;;5055740;28;19931;-66
2022/04/18 07:17:08;;;;;;;;;;;;;;;;;;5062768;28;19974;-66
2022/04/18 07:19:37;;;;;;;;;;;;;;;;;;5065010;28;20054;-65
2022/04/18 07:22:03;;;;;;;;;;;;;;;;;;5065358;28;19935;-65
2022/04/18 07:24:29;;;;;;;;;;;;;;;;;;5056598;28;19928;-65
2022/04/18 07:27:00;;;;;;;;;;;;;;;;;;5066913;28;19924;-63
2022/04/18 07:29:26;;;;;;;;;;;;;;;;;;5055253;28;19928;-63
2022/04/18 07:31:53;;;;;;;;;;;;;;;;;;5054802;28;19932;-62
2022/04/18 07:34:19;;;;;;;;;;;;;;;;;;5063283;28;19932;-64
2022/04/18 07:36:45;;;;;;;;;;;;;;;;;;5057041;28;19931;-63
2022/04/18 07:39:11;;;;;;;;;;;;;;;;;;5060867;28;20297;-63
2022/04/18 07:41:37;;;;;;;;;;;;;;;;;;5063836;28;19925;-63
2022/04/18 07:44:03;;;;;;;;;;;;;;;;;;5062957;28;19944;-63
2022/04/18 07:46:29;;;;;;;;;;;;;;;;;;5057696;28;19925;-62
2022/04/18 07:48:56;;;;;;;;;;;;;;;;;;5057011;28;20371;-62
2022/04/18 07:51:39;;;;;;;;;;;;;;;;;;5061257;28;20385;-63
2022/04/18 07:54:05;;;;;;;;;;;;;;;;;;5056543;28;20020;-63
2022/04/18 07:56:31;;;;;;;;;;;;;;;;;;5056910;28;19932;-63
2022/04/18 07:58:57;;;;;;;;;;;;;;;;;;5053381;28;19924;-64
2022/04/18 08:01:23;;;;;;;;;;;;;;;;;;5053052;28;20385;-63
2022/04/18 08:03:49;;;;;;;;;;;;;;;;;;5064076;28;19935;-64
2022/04/18 08:06:16;;;;;;;;;;;;;;;;;;5057260;28;19929;-62
2022/04/18 08:08:42;;;;;;;;;;;;;;;;;;5060148;28;19925;-63
2022/04/18 08:11:11;;;;;;;;;;;;;;;;;;5056322;28;19935;-62
2022/04/18 08:13:37;;;;;;;;;;;;;;;;;;5066531;28;19925;-63
2022/04/18 08:16:04;;;;;;;;;;;;;;;;;;5070335;28;19925;-63
2022/04/18 08:18:30;;;;;;;;;;;;;;;;;;5056787;28;19929;-63
2022/04/18 08:20:56;;;;;;;;;;;;;;;;;;5068661;28;19986;-63
2022/04/18 08:23:23;;;;;;;;;;;;;;;;;;5060053;28;19968;-62
2022/04/18 08:25:49;;;;;;;;;;;;;;;;;;5061640;28;19928;-63
2022/04/18 08:28:15;;;;;;;;;;;;;;;;;;5058103;28;19935;-63
2022/04/18 08:30:41;;;;;;;;;;;;;;;;;;5060433;28;19931;-64
2022/04/18 08:33:08;;;;;;;;;;;;;;;;;;5061232;28;19925;-62
2022/04/18 08:35:34;;;;;;;;;;;;;;;;;;5069876;28;19924;-63
2022/04/18 08:40:35;;;;;;;;;;;;;;;;;;5070947;28;19928;-68
2022/04/18 08:43:01;;;;;;;;;;;;;;;;;;5073019;28;19925;-67
2022/04/18 08:45:27;;;;;;;;;;;;;;;;;;5068777;28;19932;-67
2022/04/18 08:53:21;;;;;;;;;;;;;;;;;;5060938;28;19995;-66
2022/04/18 08:55:47;;;;;;;;;;;;;;;;;;5054704;28;19932;-66
2022/04/18 08:58:15;;;;;;;;;;;;;;;;;;5053093;28;19939;-66
2022/04/18 09:00:41;;;;;;;;;;;;;;;;;;5056792;28;20404;-66
2022/04/18 09:03:07;;;;;;;;;;;;;;;;;;5055483;28;20377;-65
2022/04/18 09:05:33;;;;;;;;;;;;;;;;;;5056141;28;20447;-67
2022/04/18 09:07:59;;;;;;;;;;;;;;;;;;5053697;28;19943;-66
2022/04/18 09:10:25;;;;;;;;;;;;;;;;;;5051807;28;19979;-67
2022/04/18 09:12:52;;;;;;;;;;;;;;;;;;5051686;28;19929;-64
2022/04/18 09:15:19;;;;;;;;;;;;;;;;;;5052610;28;20374;-64
2022/04/18 09:17:45;;;;;;;;;;;;;;;;;;5053583;28;19929;-65
2022/04/18 09:20:11;;;;;;;;;;;;;;;;;;5051320;28;19932;-65
2022/04/18 09:22:37;;;;;;;;;;;;;;;;;;5052898;28;19933;-65
2022/04/18 09:25:04;;;;;;;;;;;;;;;;;;5049860;28;20028;-66
2022/04/18 09:27:31;;;;;;;;;;;;;;;;;;5052967;28;19944;-64
2022/04/18 09:29:57;;;;;;;;;;;;;;;;;;5054540;28;20400;-67
2022/04/18 09:32:23;;;;;;;;;;;;;;;;;;5051092;28;19932;-67
2022/04/18 09:34:49;;;;;;;;;;;;;;;;;;5051642;28;19925;-68
2022/04/18 09:37:17;;;;;;;;;;;;;;;;;;5051838;28;20099;-69
2022/04/18 09:39:43;;;;;;;;;;;;;;;;;;5057697;28;20343;-69
2022/04/18 09:42:09;;;;;;;;;;;;;;;;;;5054303;28;19924;-69
2022/04/18 09:44:35;;;;;;;;;;;;;;;;;;5055656;28;19990;-68
2022/04/18 09:47:02;;;;;;;;;;;;;;;;;;5052360;28;20354;-69
2022/04/18 09:49:28;;;;;;;;;;;;;;;;;;5057270;28;19931;-69
2022/04/18 09:51:54;;;;;;;;;;;;;;;;;;5054474;28;19925;-68
2022/04/18 09:54:21;;;;;;;;;;;;;;;;;;5059251;28;19928;-68
2022/04/18 09:56:47;;;;;;;;;;;;;;;;;;5051234;28;19971;-69
2022/04/18 09:59:14;;;;;;;;;;;;;;;;;;5053882;28;19931;-70
2022/04/18 10:01:40;;;;;;;;;;;;;;;;;;5055825;28;19935;-68
2022/04/18 10:04:08;;;;;;;;;;;;;;;;;;5055460;28;20273;-69
2022/04/18 10:06:34;;;;;;;;;;;;;;;;;;5050597;28;19960;-69
2022/04/18 10:09:00;;;;;;;;;;;;;;;;;;5051298;28;19929;-68
2022/04/18 10:11:26;;;;;;;;;;;;;;;;;;5050466;28;19971;-71
2022/04/18 10:13:52;;;;;;;;;;;;;;;;;;5049085;28;20257;-68
2022/04/18 10:16:18;;;;;;;;;;;;;;;;;;5048811;28;20027;-68
2022/04/18 10:18:45;;;;;;;;;;;;;;;;;;5050973;28;20290;-69
2022/04/18 10:21:11;;;;;;;;;;;;;;;;;;5049836;28;19932;-68
2022/04/18 10:23:37;;;;;;;;;;;;;;;;;;5051149;28;19932;-69
2022/04/18 10:26:03;;;;;;;;;;;;;;;;;;5050041;28;19932;-68
2022/04/18 10:28:29;;;;;;;;;;;;;;;;;;5050980;28;19925;-69
2022/04/18 10:30:55;;;;;;;;;;;;;;;;;;5050325;28;20292;-68
2022/04/18 10:33:21;;;;;;;;;;;;;;;;;;5051220;28;19936;-69
2022/04/18 10:35:48;;;;;;;;;;;;;;;;;;5051732;28;19924;-69
2022/04/18 10:38:14;;;;;;;;;;;;;;;;;;5053833;28;19924;-70
2022/04/18 10:40:40;;;;;;;;;;;;;;;;;;5057069;28;19951;-70
2022/04/18 10:43:06;;;;;;;;;;;;;;;;;;5055454;28;19932;-69
2022/04/18 10:45:34;;;;;;;;;;;;;;;;;;5057180;28;19935;-69
2022/04/18 10:48:00;;;;;;;;;;;;;;;;;;5057255;28;19935;-69
2022/04/18 10:50:27;;;;;;;;;;;;;;;;;;5044402;28;19929;-67
2022/04/18 10:52:53;;;;;;;;;;;;;;;;;;5059590;28;19943;-68
2022/04/18 10:55:20;;;;;;;;;;;;;;;;;;5052050;28;19932;-69
2022/04/18 10:57:46;;;;;;;;;;;;;;;;;;5050707;28;19925;-69
2022/04/18 11:00:12;;;;;;;;;;;;;;;;;;5052337;28;20282;-70
2022/04/18 11:02:38;;;;;;;;;;;;;;;;;;5061189;28;19978;-68
2022/04/18 11:05:05;;;;;;;;;;;;;;;;;;5056222;28;20340;-69
2022/04/18 11:07:31;;;;;;;;;;;;;;;;;;5050083;28;19929;-68
2022/04/18 11:09:57;;;;;;;;;;;;;;;;;;5049542;28;19925;-69
2022/04/18 11:12:23;;;;;;;;;;;;;;;;;;5048727;28;19929;-68
2022/04/18 11:14:49;;;;;;;;;;;;;;;;;;5049847;28;20347;-68
2022/04/18 11:17:15;;;;;;;;;;;;;;;;;;5049746;28;20015;-68
2022/04/18 11:19:42;;;;;;;;;;;;;;;;;;5048984;28;19928;-69
2022/04/18 11:22:08;;;;;;;;;;;;;;;;;;5049650;28;19924;-69
2022/04/18 11:24:35;;;;;;;;;;;;;;;;;;5049301;28;19933;-68
2022/04/18 11:27:01;;;;;;;;;;;;;;;;;;5045200;28;19929;-69
2022/04/18 11:29:27;;;;;;;;;;;;;;;;;;5048968;28;20415;-68
2022/04/18 11:31:53;;;;;;;;;;;;;;;;;;5052889;28;19924;-69
2022/04/18 11:34:19;;;;;;;;;;;;;;;;;;5048924;28;19925;-68
2022/04/18 11:36:45;;;;;;;;;;;;;;;;;;5049208;28;19925;-69
2022/04/18 11:39:12;;;;;;;;;;;;;;;;;;5051574;28;19928;-69
2022/04/18 11:41:38;;;;;;;;;;;;;;;;;;5054982;28;19924;-68
2022/04/18 11:44:04;;;;;;;;;;;;;;;;;;5053137;28;19940;-69
2022/04/18 11:46:30;;;;;;;;;;;;;;;;;;5045970;28;20297;-67
2022/04/18 11:48:56;;;;;;;;;;;;;;;;;;5054774;28;20065;-68
2022/04/18 11:51:22;;;;;;;;;;;;;;;;;;5052703;28;20385;-68
2022/04/18 11:53:51;;;;;;;;;;;;;;;;;;5055530;28;20309;-68
2022/04/18 11:56:17;;;;;;;;;;;;;;;;;;5047219;28;20458;-68
2022/04/18 11:58:44;;;;;;;;;;;;;;;;;;5049529;28;19925;-68
2022/04/18 12:06:49;;;;;;;;;;;;;;;;;;5043186;28;19924;-71
2022/04/18 12:09:15;;;;;;;;;;;;;;;;;;5049333;28;19925;-68
2022/04/18 12:11:41;;;;;;;;;;;;;;;;;;5048908;28;19928;-69
2022/04/18 12:14:07;;;;;;;;;;;;;;;;;;5047672;28;19936;-69
2022/04/18 12:16:33;;;;;;;;;;;;;;;;;;5049044;28;20389;-68
2022/04/18 12:19:00;;;;;;;;;;;;;;;;;;5049547;28;19933;-69
2022/04/18 12:21:26;;;;;;;;;;;;;;;;;;5044366;28;19929;-68
2022/04/18 12:23:52;;;;;;;;;;;;;;;;;;5043837;28;19932;-69
2022/04/18 12:26:20;;;;;;;;;;;;;;;;;;5049892;28;19925;-68
2022/04/18 12:28:47;;;;;;;;;;;;;;;;;;5049798;28;19925;-68
2022/04/18 12:31:13;;;;;;;;;;;;;;;;;;5050001;28;20316;-68
2022/04/18 12:33:40;;;;;;;;;;;;;;;;;;5049227;28;19925;-69
2022/04/18 12:36:06;;;;;;;;;;;;;;;;;;5049063;28;19929;-68
2022/04/18 12:38:34;;;;;;;;;;;;;;;;;;5051417;28;19931;-68
2022/04/18 12:41:00;;;;;;;;;;;;;;;;;;5054827;28;19932;-68
2022/04/18 12:43:26;;;;;;;;;;;;;;;;;;5040205;28;19929;-69
2022/04/18 12:45:52;;;;;;;;;;;;;;;;;;5059038;28;19925;-67
2022/04/18 12:48:19;;;;;;;;;;;;;;;;;;5055497;28;19924;-67
2022/04/18 12:50:45;;;;;;;;;;;;;;;;;;5053281;28;19935;-70
2022/04/18 12:53:11;;;;;;;;;;;;;;;;;;5060960;28;19932;-68
2022/04/18 12:55:37;;;;;;;;;;;;;;;;;;5054775;28;20476;-68
2022/04/18 12:58:03;;;;;;;;;;;;;;;;;;5055418;28;19925;-68
2022/04/18 13:00:29;;;;;;;;;;;;;;;;;;5054978;28;19935;-69
2022/04/18 13:02:55;;;;;;;;;;;;;;;;;;5060345;28;19924;-69
2022/04/18 13:05:22;;;;;;;;;;;;;;;;;;5063618;28;19977;-68
2022/04/18 13:07:48;;;;;;;;;;;;;;;;;;5060897;28;19925;-71
2022/04/18 13:10:14;;;;;;;;;;;;;;;;;;5054670;28;19925;-68
2022/04/18 13:12:40;;;;;;;;;;;;;;;;;;5051237;28;19933;-68
2022/04/18 13:15:06;;;;;;;;;;;;;;;;;;5056167;28;20046;-68
2022/04/18 13:17:35;;;;;;;;;;;;;;;;;;5054775;28;19924;-69
2022/04/18 13:20:04;;;;;;;;;;;;;;;;;;5053668;28;20389;-69
2022/04/18 13:22:30;;;;;;;;;;;;;;;;;;5055241;28;19925;-69
2022/04/18 13:24:56;;;;;;;;;;;;;;;;;;5054199;28;19925;-69
2022/04/18 13:27:22;;;;;;;;;;;;;;;;;;5051104;28;20392;-68
2022/04/18 13:29:48;;;;;;;;;;;;;;;;;;5060122;28;19928;-68
2022/04/18 13:32:15;;;;;;;;;;;;;;;;;;5060544;28;19936;-68
2022/04/18 13:34:41;;;;;;;;;;;;;;;;;;5056780;28;19925;-68
2022/04/18 13:37:07;;;;;;;;;;;;;;;;;;5055837;28;19925;-69
2022/04/18 13:39:33;;;;;;;;;;;;;;;;;;5053250;28;19925;-68
2022/04/18 13:41:59;;;;;;;;;;;;;;;;;;5051974;28;20394;-68
2022/04/18 13:44:26;;;;;;;;;;;;;;;;;;5054473;28;19929;-68
2022/04/18 13:46:52;;;;;;;;;;;;;;;;;;5052818;28;19972;-68
2022/04/18 13:49:18;;;;;;;;;;;;;;;;;;5055403;28;19925;-67
2022/04/18 13:51:44;;;;;;;;;;;;;;;;;;5051344;28;19931;-70
2022/04/18 13:54:10;;;;;;;;;;;;;;;;;;5054766;28;19931;-67
2022/04/18 13:56:37;;;;;;;;;;;;;;;;;;5053039;28;19929;-69
2022/04/18 13:59:04;;;;;;;;;;;;;;;;;;5055752;28;20270;-69
2022/04/18 14:01:30;;;;;;;;;;;;;;;;;;5053703;28;19932;-68
2022/04/18 14:03:56;;;;;;;;;;;;;;;;;;5052191;28;19924;-69
2022/04/18 14:06:26;;;;;;;;;;;;;;;;;;5054693;28;19928;-68
2022/04/18 14:08:52;;;;;;;;;;;;;;;;;;5052139;28;19955;-68
2022/04/18 14:11:18;;;;;;;;;;;;;;;;;;5050964;28;19925;-67
2022/04/18 14:13:44;;;;;;;;;;;;;;;;;;5050457;28;20052;-67
2022/04/18 14:21:52;;;;;;;;;;;;;;;;;;5054030;28;20199;-67
2022/04/18 14:24:19;;;;;;;;;;;;;;;;;;5053703;28;19932;-68
2022/04/18 14:26:45;;;;;;;;;;;;;;;;;;4697899;28;9999817;-67
2022/04/18 14:29:11;;;;;;;;;;;;;;;;;;5047958;28;20340;-67
2022/04/18 14:31:37;;;;;;;;;;;;;;;;;;5050820;28;19940;-67
2022/04/18 14:34:04;;;;;;;;;;;;;;;;;;5051521;28;19929;-68
2022/04/18 14:36:30;;;;;;;;;;;;;;;;;;5049051;28;20305;-70
2022/04/18 14:38:56;;;;;;;;;;;;;;;;;;5051171;28;19971;-69
2022/04/18 14:41:23;;;;;;;;;;;;;;;;;;5078361;22;20329;-65
2022/04/18 14:43:49;;;;;;;;;;;;;;;;;;5063687;28;20340;-67
2022/04/18 14:46:15;;;;;;;;;;;;;;;;;;5039895;28;19928;-70
2022/04/18 14:48:41;;;;;;;;;;;;;;;;;;5033656;28;19929;-66
2022/04/18 14:51:07;;;;;;;;;;;;;;;;;;5037162;28;19939;-67
2022/04/18 14:53:34;;;;;;;;;;;;;;;;;;5036364;28;20019;-66
2022/04/18 14:56:00;;;;;;;;;;;;;;;;;;5041187;28;20015;-66
2022/04/18 14:58:26;;;;;;;;;;;;;;;;;;5037089;28;19928;-66
2022/04/18 15:00:53;;;;;;;;;;;;;;;;;;5041189;28;19929;-70
2022/04/18 15:03:19;;;;;;;;;;;;;;;;;;5043893;28;19933;-69
2022/04/18 15:05:45;;;;;;;;;;;;;;;;;;5044265;28;19933;-69
2022/04/18 15:08:11;;;;;;;;;;;;;;;;;;5038944;28;20027;-69
2022/04/18 15:10:37;;;;;;;;;;;;;;;;;;5036537;28;20346;-70
2022/04/18 15:13:03;;;;;;;;;;;;;;;;;;5029715;28;19936;-68
2022/04/18 15:15:30;;;;;;;;;;;;;;;;;;5040500;28;20064;-69
2022/04/18 15:17:56;;;;;;;;;;;;;;;;;;5041053;28;19932;-66
2022/04/18 15:20:22;;;;;;;;;;;;;;;;;;5029913;28;19940;-70
2022/04/18 15:22:48;;;;;;;;;;;;;;;;;;5038630;28;20412;-70
2022/04/18 15:25:14;;;;;;;;;;;;;;;;;;5036633;28;19925;-70
2022/04/18 15:27:41;;;;;;;;;;;;;;;;;;5036441;28;20475;-69
2022/04/18 15:32:51;;;;;;;;;;;;;;;;;;5032128;28;19924;-69
2022/04/18 15:35:19;;;;;;;;;;;;;;;;;;5042078;28;20386;-67
2022/04/18 15:37:48;;;;;;;;;;;;;;;;;;5021663;28;21031;-68
2022/04/18 15:40:14;;;;;;;;;;;;;;;;;;5029421;28;19929;-67
2022/04/18 15:42:40;;;;;;;;;;;;;;;;;;5040968;28;20323;-68
2022/04/18 15:45:06;;;;;;;;;;;;;;;;;;5040462;28;19929;-67
2022/04/18 15:47:33;;;;;;;;;;;;;;;;;;5041431;28;19929;-67
2022/04/18 15:49:59;;;;;;;;;;;;;;;;;;5038190;28;19940;-68
2022/04/18 15:52:25;;;;;;;;;;;;;;;;;;5037030;28;20010;-69
2022/04/18 15:54:51;;;;;;;;;;;;;;;;;;5029639;28;20294;-69
2022/04/18 15:57:17;;;;;;;;;;;;;;;;;;5041593;28;20328;-69
2022/04/18 15:59:44;;;;;;;;;;;;;;;;;;5042144;28;20351;-68
2022/04/18 16:02:11;;;;;;;;;;;;;;;;;;5035440;28;19939;-68
2022/04/18 16:04:37;;;;;;;;;;;;;;;;;;5042550;28;19974;-69
2022/04/18 16:07:04;;;;;;;;;;;;;;;;;;5040228;28;20010;-68
2022/04/18 16:09:30;;;;;;;;;;;;;;;;;;5039490;28;19932;-68
2022/04/18 16:11:56;;;;;;;;;;;;;;;;;;5038803;28;20441;-67
2022/04/18 16:14:23;;;;;;;;;;;;;;;;;;5033978;28;20428;-67
2022/04/18 16:16:49;;;;;;;;;;;;;;;;;;5034518;28;19995;-67
2022/04/18 16:19:15;;;;;;;;;;;;;;;;;;5036668;28;19929;-67
2022/04/18 16:21:41;;;;;;;;;;;;;;;;;;5040120;28;19933;-67
2022/04/18 16:24:15;;;;;;;;;;;;;;;;;;5041709;28;19952;-57
2022/04/18 16:26:41;;;;;;;;;;;;;;;;;;5046149;28;19928;-68
2022/04/18 16:31:51;;;;;;;;;;;;;;;;;;5037631;28;19923;-68
2022/04/18 16:34:17;;;;;;;;;;;;;;;;;;5045091;28;19929;-70
2022/04/18 16:36:43;;;;;;;;;;;;;;;;;;5040680;28;19936;-68
2022/04/18 16:39:09;;;;;;;;;;;;;;;;;;5048336;28;20385;-68
2022/04/18 16:47:11;;;;;;;;;;;;;;;;;;5002395;28;19928;-66
2022/04/18 16:49:38;;;;;;;;;;;;;;;;;;5039494;28;19936;-68
2022/04/18 16:52:04;;;;;;;;;;;;;;;;;;5046043;28;20018;-69
2022/04/18 16:54:30;;;;;;;;;;;;;;;;;;5049051;28;19933;-69
2022/04/18 16:56:56;;;;;;;;;;;;;;;;;;5047110;28;19925;-69
2022/04/18 16:59:22;;;;;;;;;;;;;;;;;;5044543;28;19937;-68
2022/04/18 17:01:48;;;;;;;;;;;;;;;;;;5046620;28;20334;-69
2022/04/18 17:04:14;;;;;;;;;;;;;;;;;;5044502;28;19925;-68
2022/04/18 17:06:41;;;;;;;;;;;;;;;;;;5048556;28;19951;-68
2022/04/18 17:09:07;;;;;;;;;;;;;;;;;;5036757;28;20374;-70
2022/04/18 17:11:33;;;;;;;;;;;;;;;;;;5045171;28;19924;-70
2022/04/18 17:13:59;;;;;;;;;;;;;;;;;;5042160;28;19933;-69
2022/04/18 17:16:26;;;;;;;;;;;;;;;;;;5045348;28;19928;-68
2022/04/18 17:18:52;;;;;;;;;;;;;;;;;;5036667;28;20412;-69